Time;durP1;ratioP1;P1;durP2;ratioP2;P2;SDS_P1;SDS_P2;PMS_P1;PMS_P2;Temp;Humidity;BMP_temperature;BMP_pressure;BME280_temperature;BME280_humidity;BME280_pressure;Samples;Min_cycle;Max_cycle;Signal;HPM_P1;HPM_P2
2023/11/07 00:03:28;;;;;;;0.60;0.60;;;13.10;35.90;;;;;;10274438;28;20232;-74
2023/11/07 00:08:33;;;;;;;0.53;0.53;;;13.00;35.90;;;;;;10273768;28;20235;-74
2023/11/07 00:13:36;;;;;;;0.50;0.50;;;12.90;36.10;;;;;;10272947;28;20290;-74
2023/11/07 00:18:40;;;;;;;0.40;0.40;;;12.90;36.10;;;;;;10273835;28;20231;-74
2023/11/07 00:23:45;;;;;;;0.73;0.57;;;12.90;36.00;;;;;;10274251;28;20223;-74
2023/11/07 00:28:48;;;;;;;0.50;0.50;;;12.90;36.10;;;;;;10273993;28;20377;-74
2023/11/07 00:33:51;;;;;;;0.57;0.57;;;12.80;36.00;;;;;;10242497;28;20323;-74
2023/11/07 00:38:57;;;;;;;0.50;0.50;;;12.70;36.10;;;;;;10273434;28;20266;-74
2023/11/07 00:44:01;;;;;;;1.10;1.00;;;12.70;36.20;;;;;;10273021;28;20278;-74
2023/11/07 00:49:05;;;;;;;4.07;2.90;;;12.60;36.10;;;;;;10272088;28;20220;-74
2023/11/07 00:54:11;;;;;;;9.10;4.67;;;12.50;36.10;;;;;;10271783;28;20231;-74
2023/11/07 00:59:14;;;;;;;8.57;4.53;;;12.50;36.20;;;;;;10271711;28;20338;-74
2023/11/07 01:04:17;;;;;;;2.47;2.27;;;12.40;36.00;;;;;;10271989;28;20267;-74
2023/11/07 01:09:22;;;;;;;1.43;1.20;;;12.40;36.10;;;;;;10272392;28;20643;-74
2023/11/07 01:14:25;;;;;;;0.80;0.80;;;12.30;36.20;;;;;;10271414;28;20710;-74
2023/11/07 01:19:28;;;;;;;0.60;0.60;;;12.30;36.10;;;;;;10272083;28;20231;-74
2023/11/07 01:24:33;;;;;;;0.50;0.50;;;12.30;36.10;;;;;;10271461;28;20262;-74
2023/11/07 01:29:37;;;;;;;0.67;0.67;;;12.20;36.30;;;;;;10271361;28;20231;-74
2023/11/07 01:34:40;;;;;;;1.37;0.50;;;12.10;36.10;;;;;;10272062;28;20235;-74
2023/11/07 01:39:44;;;;;;;0.57;0.57;;;12.00;36.30;;;;;;10271142;28;20238;-74
2023/11/07 01:44:50;;;;;;;0.60;0.60;;;12.00;36.60;;;;;;10270990;28;20232;-74
2023/11/07 01:49:54;;;;;;;0.73;0.60;;;11.90;36.70;;;;;;10232311;28;20239;-74
2023/11/07 01:55:01;;;;;;;0.50;0.50;;;11.90;36.40;;;;;;10271472;28;20314;-74
2023/11/07 02:00:10;;;;;;;2.20;0.70;;;11.80;36.50;;;;;;10270940;28;20314;-74
2023/11/07 02:05:13;;;;;;;0.50;0.50;;;11.80;36.20;;;;;;10271330;28;20314;-74
2023/11/07 02:10:19;;;;;;;1.33;0.50;;;11.60;36.00;;;;;;10271295;28;20833;-74
2023/11/07 02:15:26;;;;;;;0.57;0.57;;;11.50;36.40;;;;;;10270411;28;20238;-74
2023/11/07 02:20:30;;;;;;;0.60;0.60;;;11.40;36.40;;;;;;10270728;28;20239;-74
2023/11/07 02:25:35;;;;;;;1.70;0.50;;;11.40;36.50;;;;;;10270584;28;20231;-74
2023/11/07 02:30:40;;;;;;;0.80;0.60;;;11.30;36.70;;;;;;10270769;28;20232;-74
2023/11/07 02:35:43;;;;;;;1.80;0.50;;;11.20;36.50;;;;;;10276461;28;20734;-74
2023/11/07 02:40:49;;;;;;;0.50;0.50;;;11.20;36.60;;;;;;10278145;28;20239;-74
2023/11/07 02:45:52;;;;;;;1.03;0.60;;;11.20;36.80;;;;;;10277154;28;20910;-74
2023/11/07 02:50:56;;;;;;;0.47;0.47;;;11.20;36.60;;;;;;10277594;28;20238;-74
2023/11/07 02:56:01;;;;;;;0.60;0.60;;;11.10;36.50;;;;;;10276900;28;20705;-74
2023/11/07 03:01:04;;;;;;;1.77;1.67;;;11.00;36.70;;;;;;10276902;28;20245;-73
2023/11/07 03:06:08;;;;;;;2.57;2.37;;;10.90;36.70;;;;;;10277312;28;20230;-74
2023/11/07 03:11:13;;;;;;;1.83;1.73;;;10.90;37.00;;;;;;10276886;28;20721;-74
2023/11/07 03:16:16;;;;;;;1.77;1.20;;;10.90;37.20;;;;;;10276091;28;20239;-74
2023/11/07 03:21:21;;;;;;;1.30;1.20;;;10.90;36.90;;;;;;10276881;28;20232;-74
2023/11/07 03:26:26;;;;;;;0.70;0.70;;;11.00;36.90;;;;;;10275347;28;20322;-74
2023/11/07 03:31:30;;;;;;;0.50;0.50;;;11.00;37.00;;;;;;10275952;28;20245;-74
2023/11/07 03:36:33;;;;;;;1.67;1.00;;;10.90;36.70;;;;;;10275959;28;20711;-74
2023/11/07 03:41:41;;;;;;;1.73;1.00;;;10.80;36.70;;;;;;10275316;28;20227;-74
2023/11/07 03:46:45;;;;;;;2.00;1.90;;;10.70;37.50;;;;;;10274219;28;20259;-74
2023/11/07 03:51:48;;;;;;;2.03;1.80;;;10.60;37.00;;;;;;10275374;28;20796;-74
2023/11/07 03:56:52;;;;;;;0.80;0.80;;;10.50;37.20;;;;;;10274872;28;20255;-74
2023/11/07 04:01:58;;;;;;;0.63;0.63;;;10.40;37.50;;;;;;10275213;28;20802;-74
2023/11/07 04:07:01;;;;;;;1.40;1.30;;;10.40;37.40;;;;;;10275197;28;20239;-74
2023/11/07 04:12:06;;;;;;;1.10;1.10;;;10.30;37.40;;;;;;10273929;28;20220;-74
2023/11/07 04:17:10;;;;;;;2.10;1.90;;;10.30;37.70;;;;;;10275229;28;20235;-74
2023/11/07 04:22:13;;;;;;;0.90;0.90;;;10.30;37.40;;;;;;10274836;28;20231;-74
2023/11/07 04:27:18;;;;;;;0.60;0.60;;;10.20;37.50;;;;;;10272924;28;20231;-74
2023/11/07 04:32:22;;;;;;;0.50;0.50;;;10.10;38.20;;;;;;10271045;28;20318;-75
2023/11/07 04:37:25;;;;;;;0.70;0.70;;;10.00;38.00;;;;;;10270701;28;20266;-74
2023/11/07 04:42:30;;;;;;;0.60;0.60;;;10.00;38.10;;;;;;10270503;28;20298;-75
2023/11/07 04:47:33;;;;;;;1.07;0.47;;;10.00;38.20;;;;;;10273523;28;20246;-74
2023/11/07 04:52:37;;;;;;;1.60;0.70;;;10.00;37.70;;;;;;10270517;28;20232;-74
2023/11/07 04:57:41;;;;;;;0.60;0.60;;;9.90;38.50;;;;;;10272899;28;20238;-74
2023/11/07 05:02:45;;;;;;;0.70;0.53;;;9.80;38.70;;;;;;10273285;28;20223;-73
2023/11/07 05:07:49;;;;;;;0.50;0.50;;;9.70;38.60;;;;;;10272031;28;20239;-74
2023/11/07 05:12:53;;;;;;;0.90;0.80;;;9.60;38.80;;;;;;10272209;28;20328;-75
2023/11/07 05:17:56;;;;;;;0.60;0.60;;;9.50;39.20;;;;;;10271905;28;20235;-73
2023/11/07 05:23:00;;;;;;;0.90;0.70;;;9.40;39.10;;;;;;10270252;28;20298;-73
2023/11/07 05:28:05;;;;;;;1.20;1.10;;;9.50;39.60;;;;;;10271856;28;20984;-73
2023/11/07 05:33:08;;;;;;;0.80;0.80;;;9.60;39.70;;;;;;10270254;28;20322;-73
2023/11/07 05:38:12;;;;;;;0.70;0.70;;;9.70;39.10;;;;;;10271909;28;20243;-73
2023/11/07 05:43:18;;;;;;;0.60;0.60;;;9.80;38.90;;;;;;10271500;28;20966;-74
2023/11/07 05:48:24;;;;;;;0.70;0.70;;;9.90;39.00;;;;;;10269973;28;21311;-72
2023/11/07 05:53:28;;;;;;;2.20;0.70;;;10.00;37.70;;;;;;10263196;28;20667;-72
2023/11/07 05:58:32;;;;;;;0.80;0.80;;;10.10;37.60;;;;;;10268543;28;20239;-75
2023/11/07 06:03:36;;;;;;;2.13;0.77;;;10.20;37.60;;;;;;10271148;28;20314;-74
2023/11/07 06:08:40;;;;;;;0.63;0.63;;;10.20;37.40;;;;;;10275824;28;20851;-74
2023/11/07 06:13:45;;;;;;;0.70;0.63;;;10.30;37.40;;;;;;10281013;28;21017;-74
2023/11/07 06:18:48;;;;;;;0.60;0.60;;;10.30;37.40;;;;;;10280612;28;20232;-74
2023/11/07 06:23:51;;;;;;;0.80;0.80;;;10.20;37.00;;;;;;10280524;28;20255;-74
2023/11/07 06:28:56;;;;;;;1.97;1.10;;;10.20;37.90;;;;;;10279323;28;20257;-74
2023/11/07 06:34:00;;;;;;;1.63;1.20;;;10.20;38.10;;;;;;10279121;28;20947;-74
2023/11/07 06:39:06;;;;;;;1.27;0.80;;;10.20;37.80;;;;;;10280444;28;20228;-74
2023/11/07 06:44:11;;;;;;;0.90;0.90;;;10.30;37.60;;;;;;10280000;28;20309;-74
2023/11/07 06:49:14;;;;;;;2.00;0.93;;;10.30;37.70;;;;;;10279911;28;20250;-74
2023/11/07 06:54:18;;;;;;;0.67;0.67;;;10.40;37.60;;;;;;10279163;28;20286;-74
2023/11/07 06:59:23;;;;;;;1.63;1.00;;;10.40;37.70;;;;;;10278209;28;20245;-74
2023/11/07 07:04:26;;;;;;;1.70;1.00;;;10.50;37.70;;;;;;10277677;28;20925;-75
2023/11/07 07:09:29;;;;;;;9.10;4.90;;;10.50;37.50;;;;;;10279965;28;21605;-73
2023/11/07 07:14:34;;;;;;;1.50;1.40;;;10.50;37.50;;;;;;10244542;28;20336;-74
2023/11/07 07:19:38;;;;;;;1.40;1.30;;;10.50;37.80;;;;;;10242061;28;20232;-72
2023/11/07 07:24:41;;;;;;;3.47;2.33;;;10.50;37.70;;;;;;10246533;28;20318;-72
2023/11/07 07:29:46;;;;;;;2.17;1.50;;;10.50;37.80;;;;;;10246992;28;20358;-72
2023/11/07 07:34:49;;;;;;;1.70;1.50;;;10.50;38.30;;;;;;10246748;28;20232;-72
2023/11/07 07:39:55;;;;;;;1.40;1.30;;;10.40;38.30;;;;;;10246670;28;20318;-72
2023/11/07 07:44:59;;;;;;;1.77;1.47;;;10.40;38.70;;;;;;10246393;28;20221;-72
2023/11/07 07:50:09;;;;;;;1.43;1.33;;;10.40;39.20;;;;;;10246284;28;20228;-72
2023/11/07 07:55:12;;;;;;;2.07;1.83;;;10.40;39.10;;;;;;10245895;28;20287;-72
2023/11/07 08:00:31;;;;;;;2.77;2.20;;;10.40;39.30;;;;;;10245920;28;20238;-72
2023/11/07 08:05:38;;;;;;;3.10;1.60;;;10.50;39.80;;;;;;10245821;28;20236;-72
2023/11/07 08:10:47;;;;;;;1.70;1.40;;;10.60;39.50;;;;;;10245435;28;20315;-72
2023/11/07 08:15:53;;;;;;;1.60;1.50;;;10.70;39.50;;;;;;10245674;28;20233;-72
2023/11/07 08:20:56;;;;;;;1.50;1.40;;;10.80;40.00;;;;;;10244922;28;20327;-72
2023/11/07 08:25:59;;;;;;;1.60;1.40;;;11.00;39.60;;;;;;10245133;28;20321;-72
2023/11/07 08:31:06;;;;;;;1.90;1.50;;;11.10;39.50;;;;;;10244107;28;20240;-72
2023/11/07 08:36:09;;;;;;;1.40;1.30;;;11.20;39.90;;;;;;10244448;28;20295;-73
2023/11/07 08:41:13;;;;;;;1.10;1.10;;;11.20;39.50;;;;;;10245018;28;20523;-73
2023/11/07 08:46:19;;;;;;;2.00;1.73;;;11.30;39.80;;;;;;10243929;28;20598;-72
2023/11/07 08:51:23;;;;;;;2.63;1.50;;;11.40;40.30;;;;;;10244326;28;20232;-72
2023/11/07 08:56:26;;;;;;;1.60;1.50;;;11.40;39.80;;;;;;10244132;28;20235;-72
2023/11/07 09:01:30;;;;;;;1.50;1.40;;;11.50;39.90;;;;;;10243620;28;20523;-72
2023/11/07 09:06:33;;;;;;;1.77;1.67;;;11.50;40.20;;;;;;10243706;28;20283;-72
2023/11/07 09:11:41;;;;;;;2.10;1.87;;;11.50;40.20;;;;;;10243141;28;20579;-73
2023/11/07 09:16:46;;;;;;;2.47;1.87;;;11.60;40.30;;;;;;10243461;28;20240;-72
2023/11/07 09:21:50;;;;;;;2.77;1.50;;;11.80;41.50;;;;;;10243420;28;20267;-72
2023/11/07 09:26:53;;;;;;;1.30;1.20;;;12.00;40.70;;;;;;10243053;28;20785;-72
2023/11/07 09:31:58;;;;;;;1.40;1.00;;;12.10;40.30;;;;;;10242906;28;20232;-73
2023/11/07 09:37:02;;;;;;;0.70;0.70;;;12.50;40.10;;;;;;10242570;28;20716;-73
2023/11/07 09:42:07;;;;;;;1.23;0.80;;;12.80;39.60;;;;;;10242209;28;20238;-72
2023/11/07 09:47:13;;;;;;;2.60;0.80;;;13.20;39.70;;;;;;10242135;28;20244;-72
2023/11/07 09:52:18;;;;;;;1.03;0.70;;;13.50;38.80;;;;;;10242158;28;20232;-72
2023/11/07 09:57:24;;;;;;;0.90;0.90;;;13.80;38.50;;;;;;10242137;28;20240;-72
2023/11/07 10:02:28;;;;;;;1.00;1.00;;;14.10;38.00;;;;;;10242042;28;20235;-72
2023/11/07 10:07:32;;;;;;;0.90;0.70;;;14.30;37.70;;;;;;10240491;28;20239;-73
2023/11/07 10:12:38;;;;;;;0.70;0.70;;;14.40;37.70;;;;;;10241845;28;20235;-72
2023/11/07 10:17:58;;;;;;;3.40;0.70;;;14.60;37.20;;;;;;10241655;28;20242;-72
2023/11/07 10:23:02;;;;;;;1.43;1.10;;;14.80;36.10;;;;;;10241626;28;20303;-72
2023/11/07 10:28:06;;;;;;;1.63;1.33;;;14.90;36.80;;;;;;10241107;28;20314;-72
2023/11/07 10:33:23;;;;;;;0.80;0.80;;;15.00;36.40;;;;;;10241880;28;20727;-72
2023/11/07 10:38:28;;;;;;;0.83;0.83;;;15.00;36.10;;;;;;10241193;28;20232;-72
2023/11/07 10:43:33;;;;;;;0.70;0.70;;;15.10;36.40;;;;;;10260014;28;20239;-72
2023/11/07 10:48:39;;;;;;;1.53;1.07;;;15.20;36.00;;;;;;10280759;28;20254;-72
2023/11/07 10:53:44;;;;;;;0.90;0.90;;;15.30;35.80;;;;;;10282291;28;20227;-73
2023/11/07 10:58:52;;;;;;;4.00;2.93;;;15.40;35.80;;;;;;10287948;28;20237;-72
2023/11/07 11:04:01;;;;;;;1.20;1.00;;;15.50;35.90;;;;;;10287680;28;20230;-72
2023/11/07 11:09:10;;;;;;;0.80;0.80;;;15.60;34.90;;;;;;10287377;28;20327;-72
2023/11/07 11:14:14;;;;;;;1.00;0.70;;;15.70;35.40;;;;;;10286754;28;20235;-72
2023/11/07 11:19:29;;;;;;;0.87;0.80;;;15.90;35.60;;;;;;10287170;28;20244;-72
2023/11/07 11:24:58;;;;;;;1.60;0.70;;;15.90;34.30;;;;;;10286785;28;20314;-72
2023/11/07 11:30:02;;;;;;;0.93;0.70;;;16.00;33.70;;;;;;10286498;28;20235;-72
2023/11/07 11:35:33;;;;;;;1.57;0.70;;;16.00;34.40;;;;;;10286217;28;20228;-72
2023/11/07 11:40:50;;;;;;;1.43;0.70;;;15.90;32.70;;;;;;10286420;28;20241;-72
2023/11/07 11:45:58;;;;;;;0.70;0.60;;;15.80;32.80;;;;;;10286401;28;20314;-72
2023/11/07 11:51:35;;;;;;;1.33;0.90;;;15.80;33.70;;;;;;10285829;28;20315;-72
2023/11/07 11:57:03;;;;;;;0.70;0.70;;;15.70;32.70;;;;;;10285939;28;20714;-72
2023/11/07 12:02:08;;;;;;;1.57;0.60;;;15.60;33.30;;;;;;10285347;28;20235;-72
2023/11/07 12:07:22;;;;;;;1.20;0.80;;;15.50;34.10;;;;;;10284378;28;20663;-72
2023/11/07 12:12:26;;;;;;;0.90;0.63;;;15.50;33.00;;;;;;10285397;28;20254;-73
2023/11/07 12:17:42;;;;;;;0.90;0.90;;;15.60;34.40;;;;;;10284629;28;20235;-71
2023/11/07 12:22:47;;;;;;;1.87;0.90;;;15.60;33.90;;;;;;10284566;28;20258;-73
2023/11/07 12:28:03;;;;;;;0.93;0.83;;;15.50;33.10;;;;;;10278931;28;20259;-72
2023/11/07 12:33:08;;;;;;;1.37;0.90;;;15.40;32.50;;;;;;10269821;28;20223;-73
2023/11/07 12:38:18;;;;;;;1.40;1.20;;;15.40;34.10;;;;;;10268562;28;20234;-73
2023/11/07 12:43:23;;;;;;;2.47;1.40;;;15.40;33.80;;;;;;10264159;28;20320;-74
2023/11/07 12:48:26;;;;;;;1.57;0.80;;;15.30;34.20;;;;;;10262479;28;20266;-74
2023/11/07 12:53:31;;;;;;;1.63;0.70;;;15.30;34.00;;;;;;10260587;28;20262;-73
2023/11/07 12:58:34;;;;;;;0.93;0.70;;;15.30;34.00;;;;;;10262072;28;20232;-73
2023/11/07 13:03:38;;;;;;;0.90;0.80;;;15.30;34.20;;;;;;10262181;28;20306;-74
2023/11/07 13:08:43;;;;;;;1.27;0.90;;;15.40;34.20;;;;;;10265601;28;20227;-74
2023/11/07 13:13:49;;;;;;;0.70;0.70;;;15.40;33.70;;;;;;10262619;28;20792;-76
2023/11/07 13:18:56;;;;;;;1.37;1.00;;;15.40;33.90;;;;;;10262113;28;20597;-73
2023/11/07 13:24:03;;;;;;;2.00;0.60;;;15.50;34.20;;;;;;10262789;28;20240;-75
2023/11/07 13:29:06;;;;;;;0.93;0.73;;;15.60;33.60;;;;;;10257543;28;20228;-75
2023/11/07 13:34:09;;;;;;;0.80;0.80;;;15.60;34.00;;;;;;10256365;28;20224;-75
2023/11/07 13:39:22;;;;;;;0.80;0.80;;;15.70;34.00;;;;;;10255806;28;20243;-75
2023/11/07 13:44:26;;;;;;;1.20;0.70;;;15.70;33.60;;;;;;10248621;28;20236;-75
2023/11/07 13:49:29;;;;;;;0.80;0.80;;;15.70;33.60;;;;;;10251959;28;20255;-75
2023/11/07 13:54:34;;;;;;;0.80;0.80;;;15.80;33.60;;;;;;10257654;28;21262;-75
2023/11/07 13:59:37;;;;;;;1.03;1.00;;;15.80;33.20;;;;;;10253637;28;20278;-75
2023/11/07 14:04:40;;;;;;;1.20;1.10;;;15.80;34.00;;;;;;10256536;28;20233;-75
2023/11/07 14:09:45;;;;;;;1.20;1.07;;;15.80;33.30;;;;;;10258270;28;20255;-75
2023/11/07 14:14:48;;;;;;;1.00;1.00;;;15.70;32.80;;;;;;10252092;28;20345;-75
2023/11/07 14:19:51;;;;;;;0.80;0.80;;;15.80;33.50;;;;;;10257918;28;20765;-75
2023/11/07 14:24:59;;;;;;;0.80;0.80;;;15.80;33.30;;;;;;10260278;28;20223;-75
2023/11/07 14:30:04;;;;;;;0.70;0.70;;;15.80;32.80;;;;;;10268010;28;20307;-74
2023/11/07 14:35:28;;;;;;;0.80;0.80;;;15.80;32.90;;;;;;10267033;28;20234;-75
2023/11/07 14:40:33;;;;;;;0.80;0.80;;;15.80;32.80;;;;;;10268566;28;20235;-75
2023/11/07 14:45:39;;;;;;;1.30;1.20;;;15.80;32.40;;;;;;10262646;28;20228;-75
2023/11/07 14:50:42;;;;;;;0.70;0.70;;;15.70;32.70;;;;;;10268106;28;20238;-75
2023/11/07 14:55:49;;;;;;;1.07;0.97;;;15.70;32.70;;;;;;10265929;28;20263;-75
2023/11/07 15:00:53;;;;;;;1.13;0.93;;;15.70;32.70;;;;;;10273535;28;20227;-75
2023/11/07 15:05:57;;;;;;;0.83;0.80;;;15.60;32.60;;;;;;10273646;28;20219;-75
2023/11/07 15:11:05;;;;;;;1.00;1.00;;;15.60;32.60;;;;;;10270756;28;20228;-75
2023/11/07 15:16:10;;;;;;;1.63;0.90;;;15.60;32.10;;;;;;10272076;28;20227;-75
2023/11/07 15:21:13;;;;;;;2.10;1.20;;;15.60;32.60;;;;;;10269873;28;20224;-75
2023/11/07 15:26:18;;;;;;;1.00;1.00;;;15.50;32.50;;;;;;10268869;28;20231;-75
2023/11/07 15:31:25;;;;;;;1.50;1.40;;;15.50;32.50;;;;;;10268699;28;20236;-75
2023/11/07 15:36:29;;;;;;;1.17;0.90;;;15.50;32.50;;;;;;10267866;28;20240;-75
2023/11/07 15:41:34;;;;;;;1.27;1.00;;;15.50;32.50;;;;;;10269229;28;20239;-75
2023/11/07 15:46:39;;;;;;;0.90;0.80;;;15.50;32.40;;;;;;10264261;28;20311;-75
2023/11/07 15:51:43;;;;;;;0.80;0.80;;;15.50;32.00;;;;;;10268414;28;20224;-75
2023/11/07 15:56:48;;;;;;;1.17;0.77;;;15.50;32.50;;;;;;10268765;28;20734;-75
2023/11/07 16:01:51;;;;;;;0.90;0.80;;;15.40;32.10;;;;;;10268252;28;20694;-75
2023/11/07 16:06:55;;;;;;;0.70;0.70;;;15.20;32.30;;;;;;10265628;28;20270;-75
2023/11/07 16:11:59;;;;;;;1.60;0.70;;;15.10;32.20;;;;;;10266201;28;20347;-75
2023/11/07 16:17:03;;;;;;;0.60;0.60;;;14.90;32.00;;;;;;10264153;28;20603;-74
2023/11/07 16:22:07;;;;;;;0.77;0.70;;;14.80;32.40;;;;;;10268600;28;20226;-76
2023/11/07 16:27:13;;;;;;;0.83;0.83;;;14.80;32.60;;;;;;10270967;28;20263;-76
2023/11/07 16:32:16;;;;;;;6.33;5.73;;;14.80;32.70;;;;;;10272777;28;20559;-75
2023/11/07 16:37:19;;;;;;;3.87;3.57;;;14.70;32.70;;;;;;10270610;28;20322;-76
2023/11/07 16:42:24;;;;;;;12.60;9.83;;;14.70;32.90;;;;;;10262348;28;20236;-76
2023/11/07 16:47:28;;;;;;;9.13;5.23;;;14.60;33.10;;;;;;10270191;28;20242;-76
2023/11/07 16:52:31;;;;;;;8.57;7.60;;;14.60;33.50;;;;;;10262841;28;20642;-76
2023/11/07 16:57:36;;;;;;;6.27;5.23;;;14.60;33.60;;;;;;10263403;28;20233;-76
2023/11/07 17:02:42;;;;;;;17.87;16.20;;;14.70;33.80;;;;;;10262391;28;20231;-76
2023/11/07 17:07:45;;;;;;;18.00;16.30;;;14.70;33.50;;;;;;10267591;28;20231;-75
2023/11/07 17:12:51;;;;;;;12.93;11.73;;;14.70;33.40;;;;;;10270701;28;20271;-75
2023/11/07 17:17:54;;;;;;;8.40;7.60;;;14.60;33.50;;;;;;10266774;28;20234;-75
2023/11/07 17:22:58;;;;;;;2.77;2.23;;;14.60;33.70;;;;;;10267259;28;20327;-75
2023/11/07 17:28:02;;;;;;;1.93;1.50;;;14.50;33.50;;;;;;10261461;28;20235;-76
2023/11/07 17:33:06;;;;;;;1.97;1.87;;;14.40;33.50;;;;;;10265877;28;20754;-76
2023/11/07 17:38:10;;;;;;;1.50;1.40;;;14.30;33.60;;;;;;10262970;28;20232;-76
2023/11/07 17:43:16;;;;;;;1.60;1.50;;;14.20;33.70;;;;;;10270710;28;20236;-76
2023/11/07 17:48:19;;;;;;;2.47;1.97;;;14.10;34.20;;;;;;10263086;28;20330;-77
2023/11/07 17:53:24;;;;;;;2.43;1.50;;;14.00;34.30;;;;;;10263991;28;20232;-77
2023/11/07 17:58:29;;;;;;;1.47;1.30;;;13.90;34.70;;;;;;10272771;28;20235;-76
2023/11/07 18:03:33;;;;;;;0.97;0.97;;;13.80;34.80;;;;;;10282263;28;20318;-77
2023/11/07 18:08:36;;;;;;;0.90;0.90;;;13.70;34.70;;;;;;10277051;28;20236;-77
2023/11/07 18:13:41;;;;;;;1.00;0.90;;;13.60;35.00;;;;;;10283020;28;20237;-77
2023/11/07 18:18:44;;;;;;;0.80;0.80;;;13.60;35.40;;;;;;10271745;28;20247;-77
2023/11/07 18:24:03;;;;;;;1.00;1.00;;;13.50;35.20;;;;;;10279940;28;20282;-76
2023/11/07 18:29:07;;;;;;;1.00;1.00;;;13.50;35.20;;;;;;10283654;28;20310;-76
2023/11/07 18:34:11;;;;;;;0.70;0.70;;;13.40;35.70;;;;;;10284736;28;20224;-77
2023/11/07 18:39:29;;;;;;;1.63;1.10;;;13.30;35.50;;;;;;10284901;28;20255;-77
2023/11/07 18:44:35;;;;;;;0.60;0.60;;;13.20;35.80;;;;;;10286070;28;20311;-77
2023/11/07 18:49:39;;;;;;;0.70;0.70;;;13.10;35.60;;;;;;10286611;28;20239;-76
2023/11/07 18:54:42;;;;;;;1.00;1.00;;;13.00;35.70;;;;;;10286919;28;20223;-77
2023/11/07 18:59:47;;;;;;;0.90;0.90;;;12.90;35.80;;;;;;10265498;28;20236;-77
2023/11/07 19:04:51;;;;;;;1.20;1.10;;;12.80;36.30;;;;;;10277390;28;20245;-78
2023/11/07 19:09:55;;;;;;;2.30;2.20;;;12.80;36.10;;;;;;10241477;28;20295;-73
2023/11/07 19:15:03;;;;;;;2.60;2.40;;;12.70;36.30;;;;;;10239787;28;20235;-74
2023/11/07 19:20:09;;;;;;;2.57;2.37;;;12.60;36.90;;;;;;10242512;28;20700;-76
2023/11/07 19:25:12;;;;;;;1.37;1.27;;;12.50;36.60;;;;;;10293336;28;20231;-75
2023/11/07 19:30:17;;;;;;;1.97;1.87;;;12.40;36.50;;;;;;10269079;28;20255;-74
2023/11/07 19:35:20;;;;;;;1.20;1.10;;;12.30;37.20;;;;;;10272120;28;20231;-74
2023/11/07 19:40:23;;;;;;;1.03;1.03;;;12.20;36.90;;;;;;10260813;28;20246;-74
2023/11/07 19:45:29;;;;;;;1.00;1.00;;;12.10;37.10;;;;;;10285080;28;20238;-76
2023/11/07 19:50:32;;;;;;;0.93;0.90;;;12.00;37.40;;;;;;10285046;28;20315;-76
2023/11/07 19:55:36;;;;;;;1.00;1.00;;;12.00;37.20;;;;;;10286481;28;20266;-76
2023/11/07 20:00:42;;;;;;;0.90;0.90;;;11.90;37.30;;;;;;10281931;28;20227;-75
2023/11/07 20:05:47;;;;;;;0.80;0.80;;;11.90;37.30;;;;;;10282072;28;20765;-77
2023/11/07 20:10:50;;;;;;;0.80;0.80;;;11.80;36.90;;;;;;10280546;28;20923;-76
2023/11/07 20:15:55;;;;;;;0.80;0.80;;;11.80;37.00;;;;;;10280552;28;20231;-74
2023/11/07 20:20:58;;;;;;;0.70;0.70;;;11.80;37.30;;;;;;10281005;28;20236;-76
2023/11/07 20:26:04;;;;;;;0.77;0.77;;;11.70;37.00;;;;;;10279453;28;20227;-74
2023/11/07 20:31:09;;;;;;;1.77;1.10;;;11.60;36.90;;;;;;10278509;28;20965;-77
2023/11/07 20:36:15;;;;;;;1.03;1.00;;;11.60;37.20;;;;;;10273996;28;20702;-77
2023/11/07 20:41:20;;;;;;;1.47;1.00;;;11.60;37.30;;;;;;10280160;28;20326;-77
2023/11/07 20:46:25;;;;;;;0.97;0.97;;;11.50;37.00;;;;;;10278954;28;20231;-78
2023/11/07 20:51:38;;;;;;;1.10;1.00;;;11.40;37.30;;;;;;10269456;28;20231;-77
2023/11/07 20:56:41;;;;;;;0.80;0.80;;;11.30;37.10;;;;;;10267903;28;20807;-78
2023/11/07 21:01:46;;;;;;;1.17;1.07;;;11.30;37.10;;;;;;10270274;28;20240;-77
2023/11/07 21:06:49;;;;;;;1.00;1.00;;;11.20;37.20;;;;;;10270943;28;20228;-78
2023/11/07 21:11:53;;;;;;;1.10;1.00;;;11.20;37.20;;;;;;10269900;28;20226;-78
2023/11/07 21:16:58;;;;;;;1.00;0.90;;;11.30;37.20;;;;;;10268668;28;20311;-78
2023/11/07 21:22:02;;;;;;;1.93;1.30;;;11.20;37.20;;;;;;10269863;28;20235;-78
2023/11/07 21:27:05;;;;;;;2.10;1.90;;;11.30;37.20;;;;;;10270988;28;20231;-77
2023/11/07 21:32:10;;;;;;;1.47;1.37;;;11.30;37.00;;;;;;10261855;28;20595;-77
2023/11/07 21:37:15;;;;;;;1.43;1.33;;;11.30;37.20;;;;;;10257569;28;20235;-77
2023/11/07 21:42:18;;;;;;;1.27;1.20;;;11.20;37.50;;;;;;10262296;28;20235;-77
2023/11/07 21:47:24;;;;;;;1.70;1.60;;;11.10;37.40;;;;;;10260537;28;20236;-77
2023/11/07 21:52:27;;;;;;;2.90;2.60;;;11.10;37.80;;;;;;10252906;28;20251;-77
2023/11/07 21:57:30;;;;;;;2.43;2.23;;;11.10;37.60;;;;;;10259123;28;20235;-77
2023/11/07 22:02:37;;;;;;;2.87;1.90;;;11.10;37.70;;;;;;10262251;28;20236;-76
2023/11/07 22:07:40;;;;;;;2.13;1.93;;;11.10;38.70;;;;;;10262987;28;20236;-77
2023/11/07 22:12:43;;;;;;;2.47;2.27;;;11.00;37.60;;;;;;10258064;28;20238;-77
2023/11/07 22:17:48;;;;;;;1.97;1.87;;;11.00;37.60;;;;;;10255595;28;20228;-77
2023/11/07 22:22:51;;;;;;;1.50;1.40;;;11.00;38.00;;;;;;10262720;28;20310;-77
2023/11/07 22:27:55;;;;;;;1.40;1.30;;;11.00;37.70;;;;;;10254000;28;21045;-76
2023/11/07 22:33:00;;;;;;;1.67;1.30;;;11.00;37.60;;;;;;10259474;28;20578;-77
2023/11/07 22:38:03;;;;;;;1.83;1.00;;;10.90;37.70;;;;;;10260172;28;20315;-76
2023/11/07 22:43:07;;;;;;;1.00;0.90;;;10.90;37.60;;;;;;10263829;28;20319;-77
2023/11/07 22:48:13;;;;;;;1.80;1.10;;;10.90;37.70;;;;;;10265406;28;20228;-77
2023/11/07 22:53:18;;;;;;;0.90;0.90;;;10.90;38.10;;;;;;10264646;28;20250;-76
2023/11/07 22:58:22;;;;;;;1.50;0.90;;;11.00;37.70;;;;;;10267456;28;20232;-77
2023/11/07 23:03:27;;;;;;;1.83;1.10;;;11.10;37.60;;;;;;10268945;28;20228;-77
2023/11/07 23:08:30;;;;;;;1.87;1.20;;;11.10;37.90;;;;;;10266093;28;20244;-77
2023/11/07 23:13:34;;;;;;;1.10;1.00;;;11.10;37.60;;;;;;10269333;28;20916;-77
2023/11/07 23:18:39;;;;;;;1.27;1.00;;;11.10;37.60;;;;;;10275074;28;20310;-77
2023/11/07 23:23:46;;;;;;;1.00;0.90;;;11.10;37.80;;;;;;10269188;28;20710;-77
2023/11/07 23:28:50;;;;;;;1.77;1.07;;;11.20;37.50;;;;;;10273187;28;20314;-76
2023/11/07 23:33:55;;;;;;;1.20;1.10;;;11.20;37.50;;;;;;10270476;28;20286;-77
2023/11/07 23:38:58;;;;;;;1.60;1.00;;;11.20;37.70;;;;;;10263906;28;20231;-76
2023/11/07 23:44:01;;;;;;;1.57;0.90;;;11.20;37.30;;;;;;10268403;28;20224;-76
2023/11/07 23:49:06;;;;;;;2.10;0.90;;;11.20;37.30;;;;;;10267658;28;20303;-76
2023/11/07 23:54:09;;;;;;;1.20;0.97;;;11.20;37.30;;;;;;10269359;28;20261;-76
2023/11/07 23:59:12;;;;;;;2.57;1.10;;;11.30;37.10;;;;;;10265245;28;20275;-76
